Folcroft, Pennsylvania
Current Conditions -  °F | °C
As of 10:54 PM on Friday 19 Dec 2014 (Local Time) from KPHL Reporting Station
Broken Clouds Broken Clouds  
Wind Chill: 30°   Ceiling: 3400
Heat Index: 34°   Visibility: 10mi
Dew Point: 21°   Wind: 5mph
Humidity: 59%   Direction: 330°NNW
Pressure: 30.22"   Gusts: NA
Location:  39.9°N, 75.28°W
Report Text: KPHL 200354Z 33004KT 10SM BKN034 01/M06 A3022 RMK AO2 SLP233 T00111061
Loading
Personal Weather Stations






























Interactive Weather Map New forecast layout! Learn more

10-Day Weather Forecast

Advertisements
Track Severe Weather on mobile